sensor_id;sensor_type;location;lat;lon;timestamp;P1;durP1;ratioP1;P2;durP2;ratioP2
51066;SDS011;37112;45.892;-123.962;2022-08-01T00:00:06;18.80;;;5.80;;
51066;SDS011;37112;45.892;-123.962;2022-08-01T00:02:40;19.00;;;6.60;;
51066;SDS011;37112;45.892;-123.962;2022-08-01T00:04:55;17.10;;;3.70;;
51066;SDS011;37112;45.892;-123.962;2022-08-01T00:07:08;25.70;;;5.90;;
51066;SDS011;37112;45.892;-123.962;2022-08-01T00:09:21;11.70;;;4.20;;
51066;SDS011;37112;45.892;-123.962;2022-08-01T00:11:34;9.30;;;4.00;;
51066;SDS011;37112;45.892;-123.962;2022-08-01T00:13:47;11.80;;;4.00;;
51066;SDS011;37112;45.892;-123.962;2022-08-01T00:16:00;18.80;;;4.60;;
51066;SDS011;37112;45.892;-123.962;2022-08-01T00:18:13;19.90;;;5.90;;
51066;SDS011;37112;45.892;-123.962;2022-08-01T00:20:26;14.00;;;5.00;;
51066;SDS011;37112;45.892;-123.962;2022-08-01T00:22:40;20.50;;;5.40;;
51066;SDS011;37112;45.892;-123.962;2022-08-01T00:24:53;22.60;;;4.80;;
51066;SDS011;37112;45.892;-123.962;2022-08-01T00:27:06;20.70;;;4.90;;
51066;SDS011;37112;45.892;-123.962;2022-08-01T00:29:19;13.70;;;3.70;;
51066;SDS011;37112;45.892;-123.962;2022-08-01T00:31:52;14.20;;;3.10;;
51066;SDS011;37112;45.892;-123.962;2022-08-01T00:34:05;12.90;;;3.90;;
51066;SDS011;37112;45.892;-123.962;2022-08-01T00:36:18;17.60;;;5.40;;
51066;SDS011;37112;45.892;-123.962;2022-08-01T00:38:32;15.70;;;3.70;;
51066;SDS011;37112;45.892;-123.962;2022-08-01T00:40:45;21.30;;;5.60;;
51066;SDS011;37112;45.892;-123.962;2022-08-01T00:42:58;17.00;;;5.00;;
51066;SDS011;37112;45.892;-123.962;2022-08-01T00:45:11;18.50;;;5.80;;
51066;SDS011;37112;45.892;-123.962;2022-08-01T00:47:25;27.60;;;6.10;;
51066;SDS011;37112;45.892;-123.962;2022-08-01T00:49:37;15.60;;;5.60;;
51066;SDS011;37112;45.892;-123.962;2022-08-01T00:51:51;24.60;;;6.60;;
51066;SDS011;37112;45.892;-123.962;2022-08-01T00:54:04;24.20;;;5.80;;
51066;SDS011;37112;45.892;-123.962;2022-08-01T00:56:23;19.50;;;6.70;;
51066;SDS011;37112;45.892;-123.962;2022-08-01T00:58:37;23.30;;;6.30;;
51066;SDS011;37112;45.892;-123.962;2022-08-01T01:00:51;12.90;;;4.60;;
51066;SDS011;37112;45.892;-123.962;2022-08-01T01:03:08;19.20;;;6.00;;
51066;SDS011;37112;45.892;-123.962;2022-08-01T01:05:21;19.40;;;5.50;;
51066;SDS011;37112;45.892;-123.962;2022-08-01T01:07:36;22.10;;;6.40;;
51066;SDS011;37112;45.892;-123.962;2022-08-01T01:09:56;17.60;;;5.50;;
51066;SDS011;37112;45.892;-123.962;2022-08-01T01:12:16;20.70;;;5.40;;
51066;SDS011;37112;45.892;-123.962;2022-08-01T01:14:37;19.30;;;5.00;;
51066;SDS011;37112;45.892;-123.962;2022-08-01T01:16:54;19.70;;;5.00;;
51066;SDS011;37112;45.892;-123.962;2022-08-01T01:19:08;32.10;;;6.60;;
51066;SDS011;37112;45.892;-123.962;2022-08-01T01:21:43;16.60;;;5.20;;
51066;SDS011;37112;45.892;-123.962;2022-08-01T01:26:31;16.00;;;5.40;;
51066;SDS011;37112;45.892;-123.962;2022-08-01T01:28:59;20.50;;;6.40;;
51066;SDS011;37112;45.892;-123.962;2022-08-01T01:31:15;14.40;;;4.70;;
51066;SDS011;37112;45.892;-123.962;2022-08-01T01:33:32;15.30;;;5.30;;
51066;SDS011;37112;45.892;-123.962;2022-08-01T01:35:53;9.00;;;3.70;;
51066;SDS011;37112;45.892;-123.962;2022-08-01T01:38:17;8.70;;;4.10;;
51066;SDS011;37112;45.892;-123.962;2022-08-01T01:40:33;20.50;;;5.80;;
51066;SDS011;37112;45.892;-123.962;2022-08-01T01:42:47;5.30;;;3.20;;
51066;SDS011;37112;45.892;-123.962;2022-08-01T01:45:01;5.40;;;2.70;;
51066;SDS011;37112;45.892;-123.962;2022-08-01T01:47:16;3.20;;;2.30;;
51066;SDS011;37112;45.892;-123.962;2022-08-01T01:49:30;6.00;;;2.80;;
51066;SDS011;37112;45.892;-123.962;2022-08-01T01:51:44;13.00;;;4.10;;
51066;SDS011;37112;45.892;-123.962;2022-08-01T01:54:08;11.10;;;3.40;;
51066;SDS011;37112;45.892;-123.962;2022-08-01T01:56:22;5.80;;;3.00;;
51066;SDS011;37112;45.892;-123.962;2022-08-01T01:58:36;4.40;;;2.50;;
51066;SDS011;37112;45.892;-123.962;2022-08-01T02:00:52;3.70;;;2.20;;
51066;SDS011;37112;45.892;-123.962;2022-08-01T02:03:09;4.80;;;2.30;;
51066;SDS011;37112;45.892;-123.962;2022-08-01T02:05:23;4.20;;;3.00;;
51066;SDS011;37112;45.892;-123.962;2022-08-01T02:07:37;4.80;;;2.20;;
51066;SDS011;37112;45.892;-123.962;2022-08-01T02:09:54;4.10;;;2.30;;
51066;SDS011;37112;45.892;-123.962;2022-08-01T02:12:10;6.00;;;2.40;;
51066;SDS011;37112;45.892;-123.962;2022-08-01T02:14:26;4.20;;;3.10;;
51066;SDS011;37112;45.892;-123.962;2022-08-01T02:16:40;4.60;;;3.10;;
51066;SDS011;37112;45.892;-123.962;2022-08-01T02:18:54;3.50;;;2.60;;
51066;SDS011;37112;45.892;-123.962;2022-08-01T02:21:08;4.40;;;3.10;;
51066;SDS011;37112;45.892;-123.962;2022-08-01T02:23:23;3.70;;;2.40;;
51066;SDS011;37112;45.892;-123.962;2022-08-01T02:25:38;3.40;;;2.20;;
51066;SDS011;37112;45.892;-123.962;2022-08-01T02:28:17;5.40;;;3.30;;
51066;SDS011;37112;45.892;-123.962;2022-08-01T02:30:36;5.40;;;3.60;;
51066;SDS011;37112;45.892;-123.962;2022-08-01T02:32:53;4.70;;;2.60;;
51066;SDS011;37112;45.892;-123.962;2022-08-01T02:35:22;4.30;;;2.80;;
51066;SDS011;37112;45.892;-123.962;2022-08-01T02:37:37;4.20;;;2.40;;
51066;SDS011;37112;45.892;-123.962;2022-08-01T02:39:52;4.30;;;3.00;;
51066;SDS011;37112;45.892;-123.962;2022-08-01T02:42:07;5.10;;;2.90;;
51066;SDS011;37112;45.892;-123.962;2022-08-01T02:44:22;4.80;;;3.10;;
51066;SDS011;37112;45.892;-123.962;2022-08-01T02:46:39;3.60;;;2.30;;
51066;SDS011;37112;45.892;-123.962;2022-08-01T02:48:58;4.80;;;2.80;;
51066;SDS011;37112;45.892;-123.962;2022-08-01T02:51:15;11.50;;;4.40;;
51066;SDS011;37112;45.892;-123.962;2022-08-01T02:53:30;20.10;;;6.10;;
51066;SDS011;37112;45.892;-123.962;2022-08-01T02:55:50;24.20;;;7.20;;
51066;SDS011;37112;45.892;-123.962;2022-08-01T02:58:04;13.00;;;4.40;;
51066;SDS011;37112;45.892;-123.962;2022-08-01T03:00:22;23.40;;;7.00;;
51066;SDS011;37112;45.892;-123.962;2022-08-01T03:02:37;17.30;;;5.80;;
51066;SDS011;37112;45.892;-123.962;2022-08-01T03:04:51;24.80;;;7.30;;
51066;SDS011;37112;45.892;-123.962;2022-08-01T03:07:06;21.40;;;6.60;;
51066;SDS011;37112;45.892;-123.962;2022-08-01T03:09:21;14.10;;;5.80;;
51066;SDS011;37112;45.892;-123.962;2022-08-01T03:11:35;21.60;;;7.40;;
51066;SDS011;37112;45.892;-123.962;2022-08-01T03:13:49;24.30;;;6.80;;
51066;SDS011;37112;45.892;-123.962;2022-08-01T03:16:06;19.00;;;8.00;;
51066;SDS011;37112;45.892;-123.962;2022-08-01T03:18:21;26.90;;;7.30;;
51066;SDS011;37112;45.892;-123.962;2022-08-01T03:20:37;22.60;;;6.50;;
51066;SDS011;37112;45.892;-123.962;2022-08-01T03:22:51;22.10;;;7.30;;
51066;SDS011;37112;45.892;-123.962;2022-08-01T03:25:07;15.00;;;6.30;;
51066;SDS011;37112;45.892;-123.962;2022-08-01T03:27:22;29.90;;;8.30;;
51066;SDS011;37112;45.892;-123.962;2022-08-01T03:29:36;17.70;;;8.00;;
51066;SDS011;37112;45.892;-123.962;2022-08-01T03:31:51;28.60;;;9.10;;
51066;SDS011;37112;45.892;-123.962;2022-08-01T03:34:06;25.70;;;8.50;;
51066;SDS011;37112;45.892;-123.962;2022-08-01T03:36:19;29.30;;;9.50;;
51066;SDS011;37112;45.892;-123.962;2022-08-01T03:38:36;36.20;;;12.20;;
51066;SDS011;37112;45.892;-123.962;2022-08-01T03:40:51;34.20;;;10.10;;
51066;SDS011;37112;45.892;-123.962;2022-08-01T03:43:09;32.10;;;9.20;;
51066;SDS011;37112;45.892;-123.962;2022-08-01T03:45:27;37.50;;;9.80;;
51066;SDS011;37112;45.892;-123.962;2022-08-01T03:47:51;57.90;;;11.70;;
51066;SDS011;37112;45.892;-123.962;2022-08-01T03:50:09;47.70;;;10.80;;
51066;SDS011;37112;45.892;-123.962;2022-08-01T03:52:24;61.40;;;13.50;;
51066;SDS011;37112;45.892;-123.962;2022-08-01T03:54:40;45.20;;;11.60;;
51066;SDS011;37112;45.892;-123.962;2022-08-01T03:56:56;32.90;;;8.50;;
51066;SDS011;37112;45.892;-123.962;2022-08-01T03:59:10;13.50;;;4.50;;
51066;SDS011;37112;45.892;-123.962;2022-08-01T04:01:24;5.80;;;2.80;;
51066;SDS011;37112;45.892;-123.962;2022-08-01T04:03:37;4.10;;;2.50;;
51066;SDS011;37112;45.892;-123.962;2022-08-01T04:05:51;4.00;;;2.20;;
51066;SDS011;37112;45.892;-123.962;2022-08-01T04:08:04;4.70;;;2.30;;
51066;SDS011;37112;45.892;-123.962;2022-08-01T04:10:17;3.50;;;2.40;;
51066;SDS011;37112;45.892;-123.962;2022-08-01T04:12:31;4.30;;;2.10;;
51066;SDS011;37112;45.892;-123.962;2022-08-01T04:14:44;3.80;;;2.10;;
51066;SDS011;37112;45.892;-123.962;2022-08-01T04:16:57;3.40;;;2.10;;
51066;SDS011;37112;45.892;-123.962;2022-08-01T04:19:11;3.10;;;1.90;;
51066;SDS011;37112;45.892;-123.962;2022-08-01T04:21:24;2.10;;;1.50;;
51066;SDS011;37112;45.892;-123.962;2022-08-01T04:23:38;2.40;;;1.50;;
51066;SDS011;37112;45.892;-123.962;2022-08-01T04:25:58;3.30;;;1.60;;
51066;SDS011;37112;45.892;-123.962;2022-08-01T04:28:14;3.60;;;1.60;;
51066;SDS011;37112;45.892;-123.962;2022-08-01T04:30:29;4.30;;;1.70;;
51066;SDS011;37112;45.892;-123.962;2022-08-01T04:32:45;2.00;;;0.90;;
51066;SDS011;37112;45.892;-123.962;2022-08-01T04:35:01;2.30;;;1.30;;
51066;SDS011;37112;45.892;-123.962;2022-08-01T04:37:37;3.00;;;1.70;;
51066;SDS011;37112;45.892;-123.962;2022-08-01T04:39:53;3.30;;;1.10;;
51066;SDS011;37112;45.892;-123.962;2022-08-01T04:42:08;3.30;;;0.90;;
51066;SDS011;37112;45.892;-123.962;2022-08-01T04:44:39;1.80;;;1.30;;
51066;SDS011;37112;45.892;-123.962;2022-08-01T04:46:52;2.80;;;1.40;;
51066;SDS011;37112;45.892;-123.962;2022-08-01T04:49:06;3.80;;;1.30;;
51066;SDS011;37112;45.892;-123.962;2022-08-01T04:51:22;2.00;;;1.50;;
51066;SDS011;37112;45.892;-123.962;2022-08-01T04:53:36;2.50;;;1.40;;
51066;SDS011;37112;45.892;-123.962;2022-08-01T04:55:49;2.30;;;1.30;;
51066;SDS011;37112;45.892;-123.962;2022-08-01T04:58:03;1.80;;;1.00;;
51066;SDS011;37112;45.892;-123.962;2022-08-01T05:00:23;1.50;;;1.00;;
51066;SDS011;37112;45.892;-123.962;2022-08-01T05:02:37;2.00;;;1.00;;
51066;SDS011;37112;45.892;-123.962;2022-08-01T05:04:50;1.40;;;0.90;;
51066;SDS011;37112;45.892;-123.962;2022-08-01T05:07:04;1.70;;;0.90;;
51066;SDS011;37112;45.892;-123.962;2022-08-01T05:09:18;1.60;;;1.10;;
51066;SDS011;37112;45.892;-123.962;2022-08-01T05:11:36;1.90;;;1.10;;
51066;SDS011;37112;45.892;-123.962;2022-08-01T05:13:50;2.80;;;1.50;;
51066;SDS011;37112;45.892;-123.962;2022-08-01T05:16:03;1.80;;;1.00;;
51066;SDS011;37112;45.892;-123.962;2022-08-01T05:18:16;2.30;;;1.10;;
51066;SDS011;37112;45.892;-123.962;2022-08-01T05:20:34;4.30;;;1.40;;
51066;SDS011;37112;45.892;-123.962;2022-08-01T05:22:47;3.80;;;1.30;;
51066;SDS011;37112;45.892;-123.962;2022-08-01T05:25:03;2.20;;;1.10;;
51066;SDS011;37112;45.892;-123.962;2022-08-01T05:27:20;1.80;;;0.90;;
51066;SDS011;37112;45.892;-123.962;2022-08-01T05:29:36;2.30;;;1.30;;
51066;SDS011;37112;45.892;-123.962;2022-08-01T05:31:50;4.30;;;1.40;;
51066;SDS011;37112;45.892;-123.962;2022-08-01T05:34:04;3.20;;;1.70;;
51066;SDS011;37112;45.892;-123.962;2022-08-01T05:36:20;3.50;;;1.90;;
51066;SDS011;37112;45.892;-123.962;2022-08-01T05:40:46;3.20;;;1.20;;
51066;SDS011;37112;45.892;-123.962;2022-08-01T05:42:59;1.50;;;1.00;;
51066;SDS011;37112;45.892;-123.962;2022-08-01T05:45:12;2.40;;;1.30;;
51066;SDS011;37112;45.892;-123.962;2022-08-01T05:47:26;1.40;;;0.80;;
51066;SDS011;37112;45.892;-123.962;2022-08-01T05:49:39;2.70;;;1.00;;
51066;SDS011;37112;45.892;-123.962;2022-08-01T05:51:52;17.30;;;4.00;;
51066;SDS011;37112;45.892;-123.962;2022-08-01T05:54:05;33.40;;;6.50;;
51066;SDS011;37112;45.892;-123.962;2022-08-01T05:56:18;23.50;;;4.60;;
51066;SDS011;37112;45.892;-123.962;2022-08-01T05:58:37;24.20;;;5.00;;
51066;SDS011;37112;45.892;-123.962;2022-08-01T06:00:50;15.70;;;2.80;;
51066;SDS011;37112;45.892;-123.962;2022-08-01T06:03:04;10.70;;;2.30;;
51066;SDS011;37112;45.892;-123.962;2022-08-01T06:05:19;10.90;;;3.20;;
51066;SDS011;37112;45.892;-123.962;2022-08-01T06:07:32;4.30;;;1.70;;
51066;SDS011;37112;45.892;-123.962;2022-08-01T06:09:47;5.50;;;1.90;;
51066;SDS011;37112;45.892;-123.962;2022-08-01T06:12:00;5.60;;;2.20;;
51066;SDS011;37112;45.892;-123.962;2022-08-01T06:14:14;6.80;;;2.10;;
51066;SDS011;37112;45.892;-123.962;2022-08-01T06:16:27;10.90;;;2.50;;
51066;SDS011;37112;45.892;-123.962;2022-08-01T06:18:40;10.80;;;2.20;;
51066;SDS011;37112;45.892;-123.962;2022-08-01T06:20:54;11.50;;;3.10;;
51066;SDS011;37112;45.892;-123.962;2022-08-01T06:23:07;9.40;;;3.10;;
51066;SDS011;37112;45.892;-123.962;2022-08-01T06:25:38;10.30;;;3.00;;
51066;SDS011;37112;45.892;-123.962;2022-08-01T06:27:51;7.00;;;2.00;;
51066;SDS011;37112;45.892;-123.962;2022-08-01T06:30:05;6.80;;;1.50;;
51066;SDS011;37112;45.892;-123.962;2022-08-01T06:32:18;39.60;;;8.10;;
51066;SDS011;37112;45.892;-123.962;2022-08-01T06:34:33;5.40;;;1.70;;
51066;SDS011;37112;45.892;-123.962;2022-08-01T06:36:46;2.40;;;0.80;;
51066;SDS011;37112;45.892;-123.962;2022-08-01T06:38:59;5.80;;;0.70;;
51066;SDS011;37112;45.892;-123.962;2022-08-01T06:41:12;1.90;;;0.50;;
51066;SDS011;37112;45.892;-123.962;2022-08-01T06:43:25;1.20;;;0.50;;
51066;SDS011;37112;45.892;-123.962;2022-08-01T06:45:39;1.20;;;0.50;;
51066;SDS011;37112;45.892;-123.962;2022-08-01T06:47:52;0.50;;;0.40;;
51066;SDS011;37112;45.892;-123.962;2022-08-01T06:50:06;1.60;;;0.50;;
51066;SDS011;37112;45.892;-123.962;2022-08-01T06:52:21;7.60;;;1.70;;
51066;SDS011;37112;45.892;-123.962;2022-08-01T06:54:35;21.70;;;4.70;;
51066;SDS011;37112;45.892;-123.962;2022-08-01T06:56:48;17.90;;;4.90;;
51066;SDS011;37112;45.892;-123.962;2022-08-01T06:59:01;28.30;;;4.90;;
51066;SDS011;37112;45.892;-123.962;2022-08-01T07:01:14;14.30;;;2.60;;
51066;SDS011;37112;45.892;-123.962;2022-08-01T07:03:27;10.60;;;2.30;;
51066;SDS011;37112;45.892;-123.962;2022-08-01T07:05:59;2.10;;;0.60;;
51066;SDS011;37112;45.892;-123.962;2022-08-01T07:08:13;0.90;;;0.60;;
51066;SDS011;37112;45.892;-123.962;2022-08-01T07:10:26;3.30;;;1.20;;
51066;SDS011;37112;45.892;-123.962;2022-08-01T07:12:39;1.60;;;0.60;;
51066;SDS011;37112;45.892;-123.962;2022-08-01T07:14:52;0.60;;;0.40;;
51066;SDS011;37112;45.892;-123.962;2022-08-01T07:17:06;0.50;;;0.40;;
51066;SDS011;37112;45.892;-123.962;2022-08-01T07:19:18;1.00;;;0.40;;
51066;SDS011;37112;45.892;-123.962;2022-08-01T07:21:31;0.30;;;0.30;;
51066;SDS011;37112;45.892;-123.962;2022-08-01T07:23:47;0.30;;;0.30;;
51066;SDS011;37112;45.892;-123.962;2022-08-01T07:26:02;0.50;;;0.30;;
51066;SDS011;37112;45.892;-123.962;2022-08-01T07:28:16;0.80;;;0.40;;
51066;SDS011;37112;45.892;-123.962;2022-08-01T07:30:29;0.90;;;0.40;;
51066;SDS011;37112;45.892;-123.962;2022-08-01T07:32:42;0.30;;;0.30;;
51066;SDS011;37112;45.892;-123.962;2022-08-01T07:34:55;0.30;;;0.30;;
51066;SDS011;37112;45.892;-123.962;2022-08-01T07:37:08;0.40;;;0.40;;
51066;SDS011;37112;45.892;-123.962;2022-08-01T07:39:21;0.70;;;0.40;;
51066;SDS011;37112;45.892;-123.962;2022-08-01T07:41:34;0.60;;;0.30;;
51066;SDS011;37112;45.892;-123.962;2022-08-01T07:44:07;0.30;;;0.20;;
51066;SDS011;37112;45.892;-123.962;2022-08-01T07:46:21;0.20;;;0.20;;
51066;SDS011;37112;45.892;-123.962;2022-08-01T07:48:34;0.70;;;0.40;;
51066;SDS011;37112;45.892;-123.962;2022-08-01T07:50:47;1.40;;;0.60;;
51066;SDS011;37112;45.892;-123.962;2022-08-01T07:53:00;0.90;;;0.60;;
51066;SDS011;37112;45.892;-123.962;2022-08-01T07:55:14;0.40;;;0.30;;
51066;SDS011;37112;45.892;-123.962;2022-08-01T07:57:26;0.30;;;0.30;;
51066;SDS011;37112;45.892;-123.962;2022-08-01T07:59:40;0.30;;;0.30;;
51066;SDS011;37112;45.892;-123.962;2022-08-01T08:01:53;1.20;;;0.30;;
51066;SDS011;37112;45.892;-123.962;2022-08-01T08:04:06;1.00;;;0.40;;
51066;SDS011;37112;45.892;-123.962;2022-08-01T08:06:19;1.20;;;0.20;;
51066;SDS011;37112;45.892;-123.962;2022-08-01T08:08:32;0.40;;;0.30;;
51066;SDS011;37112;45.892;-123.962;2022-08-01T08:10:46;0.80;;;0.30;;
51066;SDS011;37112;45.892;-123.962;2022-08-01T08:12:59;0.20;;;0.20;;
51066;SDS011;37112;45.892;-123.962;2022-08-01T08:15:14;0.30;;;0.20;;
51066;SDS011;37112;45.892;-123.962;2022-08-01T08:17:27;0.40;;;0.40;;
51066;SDS011;37112;45.892;-123.962;2022-08-01T08:19:41;0.30;;;0.20;;
51066;SDS011;37112;45.892;-123.962;2022-08-01T08:21:55;0.20;;;0.20;;
51066;SDS011;37112;45.892;-123.962;2022-08-01T08:24:09;1.60;;;0.30;;
51066;SDS011;37112;45.892;-123.962;2022-08-01T08:26:32;0.30;;;0.30;;
51066;SDS011;37112;45.892;-123.962;2022-08-01T08:28:45;0.50;;;0.30;;
51066;SDS011;37112;45.892;-123.962;2022-08-01T08:30:58;0.30;;;0.30;;
51066;SDS011;37112;45.892;-123.962;2022-08-01T08:33:11;0.30;;;0.30;;
51066;SDS011;37112;45.892;-123.962;2022-08-01T08:35:25;0.30;;;0.30;;
51066;SDS011;37112;45.892;-123.962;2022-08-01T08:37:58;0.30;;;0.20;;
51066;SDS011;37112;45.892;-123.962;2022-08-01T08:40:13;0.20;;;0.20;;
51066;SDS011;37112;45.892;-123.962;2022-08-01T08:42:27;0.30;;;0.30;;
51066;SDS011;37112;45.892;-123.962;2022-08-01T08:44:41;0.20;;;0.20;;
51066;SDS011;37112;45.892;-123.962;2022-08-01T08:46:54;0.20;;;0.20;;
51066;SDS011;37112;45.892;-123.962;2022-08-01T08:49:10;1.40;;;0.30;;
51066;SDS011;37112;45.892;-123.962;2022-08-01T08:51:26;0.20;;;0.20;;
51066;SDS011;37112;45.892;-123.962;2022-08-01T08:53:40;1.20;;;0.30;;
51066;SDS011;37112;45.892;-123.962;2022-08-01T08:55:54;0.20;;;0.20;;
51066;SDS011;37112;45.892;-123.962;2022-08-01T08:58:08;0.40;;;0.40;;
51066;SDS011;37112;45.892;-123.962;2022-08-01T09:00:23;0.20;;;0.20;;
51066;SDS011;37112;45.892;-123.962;2022-08-01T09:02:36;0.20;;;0.20;;
51066;SDS011;37112;45.892;-123.962;2022-08-01T09:04:50;0.40;;;0.20;;
51066;SDS011;37112;45.892;-123.962;2022-08-01T09:07:03;0.20;;;0.20;;
51066;SDS011;37112;45.892;-123.962;2022-08-01T09:09:18;0.30;;;0.30;;
51066;SDS011;37112;45.892;-123.962;2022-08-01T09:11:31;0.30;;;0.30;;
51066;SDS011;37112;45.892;-123.962;2022-08-01T09:13:46;0.40;;;0.30;;
51066;SDS011;37112;45.892;-123.962;2022-08-01T09:16:17;0.70;;;0.20;;
51066;SDS011;37112;45.892;-123.962;2022-08-01T09:18:32;0.30;;;0.30;;
51066;SDS011;37112;45.892;-123.962;2022-08-01T09:20:48;0.80;;;0.30;;
51066;SDS011;37112;45.892;-123.962;2022-08-01T09:23:01;0.30;;;0.30;;
51066;SDS011;37112;45.892;-123.962;2022-08-01T09:25:14;0.40;;;0.30;;
51066;SDS011;37112;45.892;-123.962;2022-08-01T09:27:35;0.30;;;0.30;;
51066;SDS011;37112;45.892;-123.962;2022-08-01T09:29:52;0.20;;;0.20;;
51066;SDS011;37112;45.892;-123.962;2022-08-01T09:32:17;0.50;;;0.30;;
51066;SDS011;37112;45.892;-123.962;2022-08-01T09:34:31;0.30;;;0.30;;
51066;SDS011;37112;45.892;-123.962;2022-08-01T09:36:47;0.60;;;0.30;;
51066;SDS011;37112;45.892;-123.962;2022-08-01T09:39:04;1.30;;;0.30;;
51066;SDS011;37112;45.892;-123.962;2022-08-01T09:41:30;0.30;;;0.30;;
51066;SDS011;37112;45.892;-123.962;2022-08-01T09:43:49;0.50;;;0.30;;
51066;SDS011;37112;45.892;-123.962;2022-08-01T09:46:08;2.30;;;0.40;;
51066;SDS011;37112;45.892;-123.962;2022-08-01T09:48:21;0.40;;;0.40;;
51066;SDS011;37112;45.892;-123.962;2022-08-01T09:50:40;1.30;;;0.50;;
51066;SDS011;37112;45.892;-123.962;2022-08-01T09:52:55;2.50;;;0.40;;
51066;SDS011;37112;45.892;-123.962;2022-08-01T09:55:09;1.00;;;0.50;;
51066;SDS011;37112;45.892;-123.962;2022-08-01T09:57:22;0.40;;;0.40;;
51066;SDS011;37112;45.892;-123.962;2022-08-01T09:59:36;0.30;;;0.30;;
51066;SDS011;37112;45.892;-123.962;2022-08-01T10:02:05;1.50;;;0.40;;
51066;SDS011;37112;45.892;-123.962;2022-08-01T10:04:21;1.30;;;0.30;;
51066;SDS011;37112;45.892;-123.962;2022-08-01T10:06:35;0.40;;;0.30;;
51066;SDS011;37112;45.892;-123.962;2022-08-01T10:08:51;2.80;;;0.40;;
51066;SDS011;37112;45.892;-123.962;2022-08-01T10:11:07;0.80;;;0.40;;
51066;SDS011;37112;45.892;-123.962;2022-08-01T10:13:22;1.60;;;0.40;;
51066;SDS011;37112;45.892;-123.962;2022-08-01T10:15:42;0.30;;;0.30;;
51066;SDS011;37112;45.892;-123.962;2022-08-01T10:17:56;0.30;;;0.30;;
51066;SDS011;37112;45.892;-123.962;2022-08-01T10:20:27;0.80;;;0.40;;
51066;SDS011;37112;45.892;-123.962;2022-08-01T10:22:43;1.90;;;0.40;;
51066;SDS011;37112;45.892;-123.962;2022-08-01T10:24:58;1.80;;;0.30;;
51066;SDS011;37112;45.892;-123.962;2022-08-01T10:27:19;2.90;;;0.50;;
51066;SDS011;37112;45.892;-123.962;2022-08-01T10:29:46;1.40;;;0.40;;
51066;SDS011;37112;45.892;-123.962;2022-08-01T10:32:14;0.60;;;0.30;;
51066;SDS011;37112;45.892;-123.962;2022-08-01T10:34:30;1.20;;;0.30;;
51066;SDS011;37112;45.892;-123.962;2022-08-01T10:36:50;0.30;;;0.30;;
51066;SDS011;37112;45.892;-123.962;2022-08-01T10:39:03;0.70;;;0.40;;
51066;SDS011;37112;45.892;-123.962;2022-08-01T10:41:25;1.60;;;0.40;;
51066;SDS011;37112;45.892;-123.962;2022-08-01T10:43:41;0.80;;;0.40;;
51066;SDS011;37112;45.892;-123.962;2022-08-01T10:45:55;0.40;;;0.30;;
51066;SDS011;37112;45.892;-123.962;2022-08-01T10:48:10;1.70;;;0.40;;
51066;SDS011;37112;45.892;-123.962;2022-08-01T10:50:31;0.40;;;0.30;;
51066;SDS011;37112;45.892;-123.962;2022-08-01T10:55:28;1.30;;;0.40;;
51066;SDS011;37112;45.892;-123.962;2022-08-01T10:58:00;0.50;;;0.30;;
51066;SDS011;37112;45.892;-123.962;2022-08-01T11:00:21;0.70;;;0.40;;
51066;SDS011;37112;45.892;-123.962;2022-08-01T11:02:35;0.90;;;0.40;;
51066;SDS011;37112;45.892;-123.962;2022-08-01T11:04:54;0.50;;;0.30;;
51066;SDS011;37112;45.892;-123.962;2022-08-01T11:07:11;2.90;;;0.60;;
51066;SDS011;37112;45.892;-123.962;2022-08-01T11:09:37;0.80;;;0.40;;
51066;SDS011;37112;45.892;-123.962;2022-08-01T11:12:01;0.20;;;0.20;;
51066;SDS011;37112;45.892;-123.962;2022-08-01T11:14:28;1.90;;;0.40;;
51066;SDS011;37112;45.892;-123.962;2022-08-01T11:20:07;0.80;;;0.40;;
51066;SDS011;37112;45.892;-123.962;2022-08-01T11:22:22;0.30;;;0.30;;
51066;SDS011;37112;45.892;-123.962;2022-08-01T11:27:18;1.30;;;0.40;;
51066;SDS011;37112;45.892;-123.962;2022-08-01T11:29:36;0.40;;;0.30;;
51066;SDS011;37112;45.892;-123.962;2022-08-01T11:31:51;0.80;;;0.40;;
51066;SDS011;37112;45.892;-123.962;2022-08-01T11:39:39;0.50;;;0.40;;
51066;SDS011;37112;45.892;-123.962;2022-08-01T11:41:54;1.40;;;0.40;;
51066;SDS011;37112;45.892;-123.962;2022-08-01T11:44:26;2.70;;;0.40;;
51066;SDS011;37112;45.892;-123.962;2022-08-01T11:47:01;0.30;;;0.30;;
51066;SDS011;37112;45.892;-123.962;2022-08-01T11:52:03;1.00;;;0.40;;
51066;SDS011;37112;45.892;-123.962;2022-08-01T11:54:17;1.70;;;0.30;;
51066;SDS011;37112;45.892;-123.962;2022-08-01T11:56:41;1.90;;;0.30;;
51066;SDS011;37112;45.892;-123.962;2022-08-01T11:59:00;0.30;;;0.30;;
51066;SDS011;37112;45.892;-123.962;2022-08-01T12:01:21;0.20;;;0.20;;
51066;SDS011;37112;45.892;-123.962;2022-08-01T12:03:34;0.50;;;0.30;;
51066;SDS011;37112;45.892;-123.962;2022-08-01T12:05:51;2.60;;;0.40;;
51066;SDS011;37112;45.892;-123.962;2022-08-01T12:08:04;0.40;;;0.40;;
51066;SDS011;37112;45.892;-123.962;2022-08-01T12:10:18;1.50;;;0.40;;
51066;SDS011;37112;45.892;-123.962;2022-08-01T12:12:33;0.40;;;0.40;;
51066;SDS011;37112;45.892;-123.962;2022-08-01T12:14:47;0.30;;;0.30;;
51066;SDS011;37112;45.892;-123.962;2022-08-01T12:17:05;1.10;;;0.30;;
51066;SDS011;37112;45.892;-123.962;2022-08-01T12:19:23;3.20;;;0.30;;
51066;SDS011;37112;45.892;-123.962;2022-08-01T12:21:36;0.30;;;0.30;;
51066;SDS011;37112;45.892;-123.962;2022-08-01T12:24:01;0.30;;;0.30;;
51066;SDS011;37112;45.892;-123.962;2022-08-01T12:26:15;0.40;;;0.30;;
51066;SDS011;37112;45.892;-123.962;2022-08-01T12:30:51;1.50;;;0.40;;
51066;SDS011;37112;45.892;-123.962;2022-08-01T12:33:04;0.30;;;0.30;;
51066;SDS011;37112;45.892;-123.962;2022-08-01T12:35:20;1.90;;;0.30;;
51066;SDS011;37112;45.892;-123.962;2022-08-01T12:37:36;0.30;;;0.30;;
51066;SDS011;37112;45.892;-123.962;2022-08-01T12:39:51;0.80;;;0.30;;
51066;SDS011;37112;45.892;-123.962;2022-08-01T12:42:07;0.30;;;0.30;;
51066;SDS011;37112;45.892;-123.962;2022-08-01T12:44:21;0.80;;;0.20;;
51066;SDS011;37112;45.892;-123.962;2022-08-01T12:46:34;0.20;;;0.20;;
51066;SDS011;37112;45.892;-123.962;2022-08-01T12:48:50;0.30;;;0.30;;
51066;SDS011;37112;45.892;-123.962;2022-08-01T12:51:03;2.00;;;0.30;;
51066;SDS011;37112;45.892;-123.962;2022-08-01T12:53:17;0.20;;;0.20;;
51066;SDS011;37112;45.892;-123.962;2022-08-01T12:55:32;2.00;;;0.40;;
51066;SDS011;37112;45.892;-123.962;2022-08-01T12:58:07;0.20;;;0.20;;
51066;SDS011;37112;45.892;-123.962;2022-08-01T13:00:23;0.90;;;0.30;;
51066;SDS011;37112;45.892;-123.962;2022-08-01T13:02:36;2.90;;;0.30;;
51066;SDS011;37112;45.892;-123.962;2022-08-01T13:04:52;2.70;;;0.30;;
51066;SDS011;37112;45.892;-123.962;2022-08-01T13:07:05;1.40;;;0.20;;
51066;SDS011;37112;45.892;-123.962;2022-08-01T13:09:18;0.40;;;0.20;;
51066;SDS011;37112;45.892;-123.962;2022-08-01T13:11:32;1.10;;;0.20;;
51066;SDS011;37112;45.892;-123.962;2022-08-01T13:14:05;0.30;;;0.30;;
51066;SDS011;37112;45.892;-123.962;2022-08-01T13:16:18;0.30;;;0.30;;
51066;SDS011;37112;45.892;-123.962;2022-08-01T13:18:53;0.20;;;0.20;;
51066;SDS011;37112;45.892;-123.962;2022-08-01T13:21:11;0.80;;;0.20;;
51066;SDS011;37112;45.892;-123.962;2022-08-01T13:23:25;0.60;;;0.20;;
51066;SDS011;37112;45.892;-123.962;2022-08-01T13:25:58;0.50;;;0.20;;